COM weather

Comitan Airport
Comitán, Chiapas, Mexico

Public forecast

Using degrees Celsius for public forecast. Weather courtesy of forecast.io.

Closest aviation weather report (METAR) to Comitan Airport

Closest report is Angel Albino Corzo International Airport, 57.0 nm (105.6 km) WNW. Retrieved 2019/12/09 18:41 UTC (0 seconds ago):

MMTG 091841Z 08012KT 8SM SKC 29/17 A2993

Closest aviation forecast (TAF) to Comitan Airport

Closest forecast is Angel Albino Corzo International Airport, 57.0 nm (105.6 km) WNW. Retrieved 2019/12/09 18:36 UTC (0 seconds ago):

TAF TAF MMTG 091635Z 0918/1018 09005KT P6SM SCT015 SCT300 BECMG 0920/0921 32012KT FM100200 00000KT P6SM SCT300 FM101000 00000KT 4SM HZ BKN015 FM101500 00000KT 5SM HZ SCT015 SCT300